Time;durP1;ratioP1;P1;durP2;ratioP2;P2;SDS_P1;SDS_P2;PMS_P1;PMS_P2;Temp;Humidity;BMP_temperature;BMP_pressure;BME280_temperature;BME280_humidity;BME280_pressure;Samples;Min_cycle;Max_cycle;Signal;HPM_P1;HPM_P2
2023/01/12 00:00:12;;;;;;;17.55;2.38;;;9.40;99.90;;;;;;4043703;29;20173;-89
2023/01/12 00:02:19;;;;;;;17.75;2.67;;;9.40;99.90;;;;;;4044565;29;20267;-90
2023/01/12 00:04:20;;;;;;;17.58;2.72;;;9.50;99.90;;;;;;4043167;29;20221;-89
2023/01/12 00:06:21;;;;;;;23.08;2.45;;;9.50;99.90;;;;;;4026549;29;20210;-89
2023/01/12 00:08:22;;;;;;;24.73;2.97;;;9.50;99.90;;;;;;4042399;29;20185;-89
2023/01/12 00:10:23;;;;;;;18.58;2.90;;;9.60;99.90;;;;;;4051451;29;20179;-89
2023/01/12 00:12:24;;;;;;;28.77;3.13;;;9.50;99.90;;;;;;4056042;29;20170;-90
2023/01/12 00:14:25;;;;;;;22.25;2.35;;;9.40;99.90;;;;;;4027607;29;20230;-88
2023/01/12 00:16:36;;;;;;;22.02;2.63;;;9.50;99.90;;;;;;4042084;29;20241;-90
2023/01/12 00:18:37;;;;;;;21.80;2.85;;;9.40;99.90;;;;;;4043651;29;20197;-90
2023/01/12 00:20:47;;;;;;;25.05;3.38;;;9.50;99.90;;;;;;4044104;29;20274;-88
2023/01/12 00:22:48;;;;;;;27.10;2.50;;;9.50;99.90;;;;;;4040692;29;20209;-88
2023/01/12 00:24:51;;;;;;;20.83;2.08;;;9.50;99.90;;;;;;4026593;29;20221;-89
2023/01/12 00:26:52;;;;;;;18.98;2.33;;;9.40;99.90;;;;;;4041386;29;20224;-89
2023/01/12 00:28:53;;;;;;;20.85;2.78;;;9.50;99.90;;;;;;4010729;29;20274;-89
2023/01/12 00:31:06;;;;;;;25.52;2.58;;;9.50;99.90;;;;;;4026030;29;20671;-91
2023/01/12 00:33:07;;;;;;;21.25;2.55;;;9.50;99.90;;;;;;4043391;29;20182;-94
2023/01/12 00:35:08;;;;;;;18.13;2.63;;;9.60;99.90;;;;;;4026684;29;20193;-89
2023/01/12 00:37:09;;;;;;;17.55;2.38;;;9.60;99.90;;;;;;4041218;29;20241;-92
2023/01/12 00:39:10;;;;;;;23.05;2.60;;;9.70;99.90;;;;;;4026868;29;20667;-93
2023/01/12 00:45:51;;;;;;;17.23;2.50;;;9.60;99.90;;;;;;4040991;29;20177;-95
2023/01/12 00:47:52;;;;;;;29.20;3.38;;;9.70;99.90;;;;;;4040272;29;20205;-89
2023/01/12 00:49:53;;;;;;;22.02;2.30;;;9.70;99.90;;;;;;4040409;29;20726;-89
2023/01/12 00:51:54;;;;;;;26.58;3.88;;;9.60;99.90;;;;;;4026296;29;20175;-89
2023/01/12 00:53:54;;;;;;;24.30;2.80;;;9.60;99.90;;;;;;4040683;29;20342;-88
2023/01/12 00:56:03;;;;;;;23.58;2.58;;;9.60;99.90;;;;;;4024904;29;20201;-89
2023/01/12 00:58:03;;;;;;;25.10;2.97;;;9.60;99.90;;;;;;4057775;29;20192;-89
2023/01/12 01:00:05;;;;;;;19.40;2.45;;;9.70;99.90;;;;;;4024740;29;20217;-89
2023/01/12 01:02:06;;;;;;;18.48;1.92;;;9.70;99.90;;;;;;4041682;29;20189;-90
2023/01/12 01:04:07;;;;;;;26.75;2.88;;;9.80;99.90;;;;;;4026198;29;20255;-90
2023/01/12 01:06:08;;;;;;;28.60;2.97;;;9.80;99.90;;;;;;4025893;29;20638;-89
2023/01/12 01:08:09;;;;;;;16.50;2.28;;;9.80;99.90;;;;;;4025391;29;20182;-89
2023/01/12 01:10:10;;;;;;;21.80;2.65;;;9.70;99.90;;;;;;4025711;29;20182;-91
2023/01/12 01:12:11;;;;;;;23.45;2.38;;;9.80;99.90;;;;;;4040928;29;20174;-89
2023/01/12 01:14:12;;;;;;;22.30;3.15;;;9.70;99.90;;;;;;4025662;29;20189;-91
2023/01/12 01:16:15;;;;;;;20.85;2.90;;;9.80;99.90;;;;;;4025198;29;20162;-88
2023/01/12 01:18:16;;;;;;;25.35;3.03;;;9.80;99.90;;;;;;4041062;29;20192;-89
2023/01/12 01:20:18;;;;;;;27.83;3.15;;;9.80;99.90;;;;;;4040711;29;20173;-90
2023/01/12 01:22:19;;;;;;;24.85;3.35;;;9.70;99.90;;;;;;4039824;29;20178;-90
2023/01/12 01:24:20;;;;;;;15.82;2.30;;;9.70;99.90;;;;;;4026329;29;20217;-90
2023/01/12 01:26:22;;;;;;;26.42;2.58;;;9.60;99.90;;;;;;4040997;29;20193;-90
2023/01/12 01:28:22;;;;;;;24.15;2.72;;;9.60;99.90;;;;;;4040541;29;20666;-89
2023/01/12 01:30:23;;;;;;;24.60;3.53;;;9.50;99.90;;;;;;4026409;29;20202;-90
2023/01/12 01:32:24;;;;;;;24.52;3.55;;;9.60;99.90;;;;;;4043175;29;20734;-89
2023/01/12 01:34:25;;;;;;;20.65;2.95;;;9.50;99.90;;;;;;4039395;29;20165;-89
2023/01/12 01:36:25;;;;;;;16.65;2.17;;;9.50;99.90;;;;;;4024877;29;20242;-89
2023/01/12 01:38:27;;;;;;;20.95;2.65;;;9.40;99.90;;;;;;4040178;29;20178;-89
2023/01/12 01:40:28;;;;;;;19.27;2.58;;;9.40;99.90;;;;;;4024833;29;20571;-90
2023/01/12 01:42:28;;;;;;;23.00;2.53;;;9.50;99.90;;;;;;4039980;29;20178;-89
2023/01/12 01:44:29;;;;;;;19.40;2.42;;;9.60;99.90;;;;;;4024246;29;20254;-89
2023/01/12 01:46:41;;;;;;;18.05;2.45;;;9.50;99.90;;;;;;4024806;29;20206;-91
2023/01/12 01:48:43;;;;;;;23.42;2.55;;;9.50;99.90;;;;;;4040206;29;20181;-90
2023/01/12 01:50:51;;;;;;;23.80;2.80;;;9.60;99.90;;;;;;4040889;29;20181;-90
2023/01/12 01:53:01;;;;;;;23.05;2.38;;;9.70;99.90;;;;;;4040238;29;20268;-89
2023/01/12 01:55:09;;;;;;;23.42;3.05;;;9.80;99.90;;;;;;4039006;29;20645;-89
2023/01/12 01:57:12;;;;;;;14.80;2.15;;;9.80;99.90;;;;;;4044490;29;20200;-91
2023/01/12 01:59:25;;;;;;;19.55;3.17;;;9.80;99.90;;;;;;4042674;29;20341;-89
2023/01/12 02:01:27;;;;;;;21.20;2.25;;;9.80;99.90;;;;;;4044698;29;20268;-89
2023/01/12 02:03:29;;;;;;;19.77;2.60;;;9.60;99.90;;;;;;4042738;29;20213;-96
2023/01/12 02:05:29;;;;;;;13.90;1.92;;;9.60;99.90;;;;;;4026589;29;20215;-89
2023/01/12 02:07:31;;;;;;;18.10;2.88;;;9.70;99.90;;;;;;4043149;29;20201;-90
2023/01/12 02:09:34;;;;;;;21.67;2.60;;;9.60;99.90;;;;;;4042471;29;20177;-91
2023/01/12 02:16:24;;;;;;;19.63;2.17;;;9.70;99.90;;;;;;4045561;29;20169;-89
2023/01/12 02:18:57;;;;;;;13.55;2.13;;;9.60;99.90;;;;;;4044119;29;20189;-90
2023/01/12 02:21:35;;;;;;;18.60;2.20;;;9.60;99.90;;;;;;4012728;29;20233;-90
2023/01/12 02:24:06;;;;;;;22.92;2.95;;;9.60;99.90;;;;;;4041334;29;20276;-88
2023/01/12 02:26:15;;;;;;;23.17;2.75;;;9.60;99.90;;;;;;4041969;29;20180;-90
2023/01/12 02:28:27;;;;;;;18.15;1.90;;;9.60;99.90;;;;;;4041893;29;20217;-89
2023/01/12 02:30:45;;;;;;;17.15;2.22;;;9.60;99.90;;;;;;4042372;29;20314;-89
2023/01/12 02:32:51;;;;;;;19.50;2.42;;;9.60;99.90;;;;;;4059251;29;20265;-91
2023/01/12 02:35:03;;;;;;;14.95;2.15;;;9.60;99.90;;;;;;4041122;29;20182;-89
2023/01/12 02:37:13;;;;;;;16.42;1.90;;;9.70;99.90;;;;;;4045768;29;20201;-90
2023/01/12 02:39:16;;;;;;;23.00;2.10;;;9.70;99.90;;;;;;4044231;29;20181;-89
2023/01/12 02:44:34;;;;;;;16.50;2.45;;;9.60;99.90;;;;;;4042658;29;20243;-93
2023/01/12 02:46:39;;;;;;;19.40;2.90;;;9.60;99.90;;;;;;4052594;29;20181;-89
2023/01/12 02:49:01;;;;;;;14.82;2.30;;;9.70;99.90;;;;;;4049751;29;20193;-89
2023/01/12 02:51:16;;;;;;;23.38;2.92;;;9.80;99.90;;;;;;4016233;29;20183;-90
2023/01/12 02:53:22;;;;;;;17.50;1.85;;;9.80;99.90;;;;;;4043063;29;20606;-89
2023/01/12 02:55:25;;;;;;;17.75;2.30;;;9.70;99.90;;;;;;4041754;29;20177;-89
2023/01/12 02:57:29;;;;;;;16.00;2.45;;;9.80;99.90;;;;;;4042349;29;20197;-90
2023/01/12 02:59:36;;;;;;;19.67;2.25;;;9.90;99.90;;;;;;4041446;29;20185;-89
2023/01/12 03:01:38;;;;;;;20.77;2.72;;;9.80;99.90;;;;;;4041431;29;21199;-90
2023/01/12 03:03:40;;;;;;;18.65;3.17;;;9.80;99.90;;;;;;4041558;29;20241;-89
2023/01/12 03:05:43;;;;;;;19.05;2.50;;;9.80;99.90;;;;;;4057020;29;20215;-90
2023/01/12 03:07:47;;;;;;;20.73;2.58;;;9.80;99.90;;;;;;4041452;29;20691;-90
2023/01/12 03:09:55;;;;;;;23.88;2.45;;;9.80;99.90;;;;;;4026084;29;20186;-89
2023/01/12 03:12:03;;;;;;;24.52;3.42;;;9.80;99.90;;;;;;4040801;29;20632;-90
2023/01/12 03:14:05;;;;;;;18.98;2.28;;;9.80;99.90;;;;;;4043530;29;20166;-89
2023/01/12 03:16:09;;;;;;;33.58;2.88;;;9.80;99.90;;;;;;4026469;29;20182;-88
2023/01/12 03:18:22;;;;;;;16.45;2.42;;;9.90;99.90;;;;;;4042904;29;20202;-89
2023/01/12 03:20:37;;;;;;;19.15;2.60;;;9.80;99.90;;;;;;4043643;29;20157;-89
2023/01/12 03:22:39;;;;;;;21.23;2.67;;;9.70;99.90;;;;;;4041500;29;20560;-89
2023/01/12 03:24:44;;;;;;;30.00;2.90;;;9.60;99.90;;;;;;4040204;29;20710;-91
2023/01/12 03:26:48;;;;;;;29.02;2.60;;;9.60;99.90;;;;;;4041296;29;20556;-89
2023/01/12 03:29:04;;;;;;;23.83;2.47;;;9.60;99.90;;;;;;4043431;29;20180;-89
2023/01/12 03:31:09;;;;;;;12.68;1.90;;;9.60;99.90;;;;;;4041725;29;20184;-90
2023/01/12 03:33:11;;;;;;;22.20;2.67;;;9.50;99.90;;;;;;4041937;29;20174;-89
2023/01/12 03:35:12;;;;;;;23.73;2.83;;;9.50;99.90;;;;;;4040989;29;20189;-89
2023/01/12 03:37:22;;;;;;;24.55;3.08;;;9.50;99.90;;;;;;4026337;29;20194;-90
2023/01/12 03:39:45;;;;;;;18.17;2.10;;;9.60;99.90;;;;;;4041778;29;20185;-90
2023/01/12 03:42:03;;;;;;;13.70;1.92;;;9.60;99.90;;;;;;4025707;29;20209;-90
2023/01/12 03:44:11;;;;;;;27.85;2.97;;;9.70;99.90;;;;;;4043105;29;20278;-90
2023/01/12 03:46:28;;;;;;;18.85;3.28;;;9.60;99.90;;;;;;4044208;29;20721;-90
2023/01/12 03:48:42;;;;;;;25.05;2.17;;;9.60;99.90;;;;;;4042139;29;20286;-89
2023/01/12 03:50:50;;;;;;;23.85;2.92;;;9.60;99.90;;;;;;4040386;29;20182;-89
2023/01/12 03:52:54;;;;;;;18.20;2.88;;;9.60;99.90;;;;;;4041118;29;20177;-90
2023/01/12 03:54:57;;;;;;;30.27;2.80;;;9.60;99.90;;;;;;4040949;29;20177;-88
2023/01/12 03:56:59;;;;;;;15.13;2.33;;;9.70;99.90;;;;;;4040182;29;20226;-89
2023/01/12 03:59:01;;;;;;;23.70;2.75;;;9.70;99.90;;;;;;4039815;29;20289;-91
2023/01/12 04:01:02;;;;;;;21.42;2.88;;;9.60;99.90;;;;;;4040587;29;20685;-89
2023/01/12 04:03:09;;;;;;;14.30;2.28;;;9.60;99.90;;;;;;4040597;29;20647;-89
2023/01/12 04:05:12;;;;;;;26.90;3.03;;;9.50;99.90;;;;;;4040313;29;20294;-89
2023/01/12 04:07:13;;;;;;;18.15;2.10;;;9.50;99.90;;;;;;4040130;29;20201;-89
2023/01/12 04:09:13;;;;;;;19.42;2.58;;;9.50;99.90;;;;;;4039451;29;20222;-89
2023/01/12 04:13:33;;;;;;;12.38;1.88;;;9.50;99.90;;;;;;4039467;29;20575;-89
2023/01/12 04:15:36;;;;;;;22.90;3.15;;;9.50;99.90;;;;;;4039675;29;20181;-90
2023/01/12 04:17:37;;;;;;;10.45;1.73;;;9.50;99.90;;;;;;4041512;29;20210;-89
2023/01/12 04:19:39;;;;;;;22.67;2.95;;;9.50;99.90;;;;;;4025026;29;20167;-89
2023/01/12 04:23:59;;;;;;;22.00;2.65;;;9.50;99.90;;;;;;4055289;29;20216;-90
2023/01/12 04:26:01;;;;;;;19.95;2.42;;;9.60;99.90;;;;;;4024675;29;20186;-89
2023/01/12 04:28:02;;;;;;;23.05;3.03;;;9.60;99.90;;;;;;4025498;29;20230;-89
2023/01/12 04:30:03;;;;;;;20.15;2.95;;;9.60;99.90;;;;;;4024333;29;20666;-91
2023/01/12 04:32:04;;;;;;;19.55;2.22;;;9.70;99.90;;;;;;4040105;29;20177;-89
2023/01/12 04:34:05;;;;;;;23.95;3.03;;;9.70;99.90;;;;;;4039657;29;20189;-89
2023/01/12 04:36:07;;;;;;;20.45;1.85;;;9.70;99.90;;;;;;4023890;29;20575;-90
2023/01/12 04:38:08;;;;;;;19.60;2.10;;;9.70;99.90;;;;;;4039373;29;20185;-88
2023/01/12 04:40:11;;;;;;;16.65;2.22;;;9.60;99.90;;;;;;4040097;29;20758;-89
2023/01/12 04:44:31;;;;;;;15.48;1.70;;;9.60;99.90;;;;;;4040711;29;20235;-89
2023/01/12 04:46:31;;;;;;;27.90;2.63;;;9.50;99.90;;;;;;4040067;29;20205;-89
2023/01/12 04:48:32;;;;;;;15.30;1.92;;;9.60;99.90;;;;;;4041246;29;20162;-89
2023/01/12 04:50:33;;;;;;;22.38;2.63;;;9.70;99.90;;;;;;4024825;29;20181;-89
2023/01/12 04:52:35;;;;;;;26.33;2.85;;;9.90;99.90;;;;;;4025409;29;20182;-89
2023/01/12 04:54:35;;;;;;;14.68;2.08;;;10.00;99.90;;;;;;4024871;29;20530;-89
2023/01/12 04:56:36;;;;;;;26.27;2.63;;;9.90;99.90;;;;;;4040922;29;20268;-89
2023/01/12 04:58:37;;;;;;;16.80;2.75;;;9.90;99.90;;;;;;4025224;29;20280;-89
2023/01/12 05:00:37;;;;;;;23.33;2.28;;;9.80;99.90;;;;;;4039539;29;20173;-88
2023/01/12 05:02:38;;;;;;;15.50;2.40;;;9.80;99.90;;;;;;4024896;29;20652;-88
2023/01/12 05:04:39;;;;;;;15.88;1.90;;;10.00;99.90;;;;;;4038615;29;20216;-90
2023/01/12 05:06:39;;;;;;;15.75;1.98;;;9.90;99.90;;;;;;4039070;29;20241;-89
2023/01/12 05:11:16;;;;;;;8.02;1.70;;;9.80;99.90;;;;;;3962696;30;20188;-88
2023/01/12 05:13:18;;;;;;;8.82;1.90;;;9.80;99.90;;;;;;3997658;29;20201;-88
2023/01/12 05:15:18;;;;;;;17.15;2.22;;;9.80;99.90;;;;;;4040382;29;20169;-93
2023/01/12 05:17:19;;;;;;;13.48;1.85;;;9.90;99.90;;;;;;4025794;29;20286;-88
2023/01/12 05:19:20;;;;;;;20.95;2.42;;;10.00;99.90;;;;;;4040773;29;20173;-88
2023/01/12 05:21:22;;;;;;;6.68;1.17;;;10.10;99.90;;;;;;4036135;29;20177;-88
2023/01/12 05:23:22;;;;;;;20.35;1.92;;;10.00;99.90;;;;;;4047123;29;20177;-89
2023/01/12 05:25:25;;;;;;;12.80;1.88;;;10.00;99.90;;;;;;4041991;29;20217;-88
2023/01/12 05:27:26;;;;;;;12.75;1.67;;;10.00;99.90;;;;;;4040996;29;20225;-88
2023/01/12 05:29:27;;;;;;;14.20;1.85;;;10.00;99.90;;;;;;4039563;29;20218;-91
2023/01/12 05:31:28;;;;;;;10.13;1.10;;;9.90;99.90;;;;;;4038497;29;20199;-88
2023/01/12 05:33:29;;;;;;;12.52;1.85;;;9.90;99.90;;;;;;4024129;29;20182;-88
2023/01/12 05:35:30;;;;;;;23.58;2.60;;;9.90;99.90;;;;;;4023245;29;20703;-88
2023/01/12 05:37:32;;;;;;;13.25;1.98;;;9.80;99.90;;;;;;4040089;29;20292;-89
2023/01/12 05:39:33;;;;;;;15.00;2.13;;;9.80;99.90;;;;;;4023878;29;20178;-88
2023/01/12 05:41:33;;;;;;;13.95;2.15;;;9.80;99.90;;;;;;4023937;29;20182;-89
2023/01/12 05:43:49;;;;;;;15.32;2.22;;;9.80;99.90;;;;;;4025006;29;20178;-89
2023/01/12 05:45:50;;;;;;;14.73;1.75;;;9.80;99.90;;;;;;4024205;29;20218;-90
2023/01/12 05:48:01;;;;;;;16.55;1.60;;;9.80;99.90;;;;;;4038758;29;20201;-89
2023/01/12 05:50:02;;;;;;;20.20;2.00;;;9.80;99.90;;;;;;4039202;29;20184;-88
2023/01/12 05:52:03;;;;;;;13.90;1.98;;;9.80;99.90;;;;;;4039394;29;20182;-89
2023/01/12 05:54:04;;;;;;;13.93;2.15;;;9.80;99.90;;;;;;4025368;29;20311;-88
2023/01/12 05:56:08;;;;;;;16.30;1.70;;;9.70;99.90;;;;;;4040108;29;20249;-89
2023/01/12 05:58:09;;;;;;;7.40;1.70;;;9.80;99.90;;;;;;4039040;29;20690;-88
2023/01/12 06:00:10;;;;;;;11.18;1.40;;;9.70;99.90;;;;;;4023028;29;20194;-89
2023/01/12 06:02:16;;;;;;;22.85;2.58;;;9.70;99.90;;;;;;4039562;29;20182;-89
2023/01/12 06:04:17;;;;;;;29.83;2.03;;;9.70;99.90;;;;;;4022794;29;20218;-89
2023/01/12 06:06:19;;;;;;;15.15;2.00;;;9.70;99.90;;;;;;4022817;29;20242;-88
2023/01/12 06:08:19;;;;;;;16.60;2.10;;;9.70;99.90;;;;;;4038192;29;20596;-88
2023/01/12 06:10:20;;;;;;;14.18;2.13;;;9.80;99.90;;;;;;4039014;29;20186;-89
2023/01/12 06:14:40;;;;;;;14.48;1.95;;;9.80;99.90;;;;;;4037325;29;20245;-90
2023/01/12 06:16:42;;;;;;;17.27;2.22;;;9.80;99.90;;;;;;4037367;29;20206;-88
2023/01/12 06:18:42;;;;;;;13.45;1.98;;;9.90;99.90;;;;;;4037473;29;20177;-89
2023/01/12 06:20:43;;;;;;;15.57;1.90;;;9.90;99.90;;;;;;4037404;29;20659;-88
2023/01/12 06:22:44;;;;;;;22.40;2.22;;;9.90;99.90;;;;;;4021888;29;20167;-89
2023/01/12 06:24:47;;;;;;;17.80;1.83;;;10.00;99.90;;;;;;4022263;29;20221;-89
2023/01/12 06:26:48;;;;;;;17.77;2.10;;;10.00;99.90;;;;;;4022024;29;20195;-88
2023/01/12 06:28:49;;;;;;;17.55;1.85;;;10.00;99.90;;;;;;4022248;29;20215;-88
2023/01/12 06:30:58;;;;;;;14.35;1.83;;;10.00;99.90;;;;;;4037256;29;20612;-90
2023/01/12 06:33:01;;;;;;;12.88;2.10;;;10.00;99.90;;;;;;4037563;29;20181;-88
2023/01/12 06:35:02;;;;;;;13.18;1.73;;;10.00;99.90;;;;;;4037106;29;20192;-88
2023/01/12 06:37:06;;;;;;;14.85;2.42;;;10.00;99.90;;;;;;4022170;29;20242;-88
2023/01/12 06:39:06;;;;;;;11.55;1.38;;;10.10;99.90;;;;;;4037478;29;20235;-89
2023/01/12 06:43:31;;;;;;;10.90;1.00;;;10.10;99.90;;;;;;4038255;29;20797;-89
2023/01/12 06:45:31;;;;;;;13.70;1.58;;;10.00;99.90;;;;;;4040546;29;20178;-89
2023/01/12 06:47:32;;;;;;;10.43;1.58;;;10.00;99.90;;;;;;4039890;29;20292;-88
2023/01/12 06:49:33;;;;;;;9.88;1.63;;;10.00;99.90;;;;;;4024448;29;20243;-87
2023/01/12 06:51:34;;;;;;;16.00;1.75;;;10.00;99.90;;;;;;4039881;29;20188;-88
2023/01/12 06:53:35;;;;;;;13.05;1.33;;;10.00;99.90;;;;;;4039937;29;20189;-88
2023/01/12 06:55:35;;;;;;;14.50;1.60;;;10.00;99.90;;;;;;4039879;29;20173;-88
2023/01/12 06:57:36;;;;;;;13.32;1.83;;;9.90;99.90;;;;;;4039597;29;20197;-89
2023/01/12 06:59:37;;;;;;;13.05;1.85;;;10.10;99.90;;;;;;4024653;29;20232;-90
2023/01/12 07:01:39;;;;;;;11.88;1.35;;;10.00;99.90;;;;;;4039749;29;20177;-88
2023/01/12 07:03:40;;;;;;;9.07;1.23;;;10.00;99.90;;;;;;4039733;29;20709;-89
2023/01/12 07:05:41;;;;;;;14.00;1.77;;;10.00;99.90;;;;;;4024584;29;20179;-89
2023/01/12 07:07:42;;;;;;;8.52;1.10;;;10.10;99.90;;;;;;4039482;29;20296;-89
2023/01/12 07:09:43;;;;;;;10.55;1.30;;;10.20;99.90;;;;;;4039578;29;20210;-89
2023/01/12 07:11:43;;;;;;;16.00;1.20;;;10.10;99.90;;;;;;4039765;29;20699;-88
2023/01/12 07:13:44;;;;;;;9.50;1.00;;;10.10;99.90;;;;;;4024788;29;20186;-89
2023/01/12 07:15:45;;;;;;;8.45;1.40;;;10.10;99.90;;;;;;4039776;29;20201;-88
2023/01/12 07:17:45;;;;;;;9.48;1.45;;;10.00;99.90;;;;;;4024384;29;20212;-88
2023/01/12 07:19:46;;;;;;;10.05;1.83;;;10.10;99.90;;;;;;4039336;29;20748;-89
2023/01/12 07:21:50;;;;;;;6.68;1.30;;;10.10;99.90;;;;;;4039679;29;20189;-88
2023/01/12 07:23:51;;;;;;;8.77;1.30;;;10.10;99.90;;;;;;4024010;29;20301;-89
2023/01/12 07:25:52;;;;;;;8.15;1.00;;;10.10;99.90;;;;;;4039274;29;20182;-88
2023/01/12 07:27:55;;;;;;;17.80;1.73;;;10.20;99.90;;;;;;4039112;29;20194;-88
2023/01/12 07:29:56;;;;;;;17.80;1.67;;;10.20;99.90;;;;;;4039313;29;20712;-88
2023/01/12 07:31:57;;;;;;;9.32;1.58;;;10.20;99.90;;;;;;4024027;29;20265;-88
2023/01/12 07:33:58;;;;;;;6.32;1.23;;;10.20;99.90;;;;;;4023949;29;20174;-89
2023/01/12 07:36:00;;;;;;;8.95;1.38;;;10.20;99.90;;;;;;4038941;29;20272;-89
2023/01/12 07:38:01;;;;;;;16.40;2.22;;;10.20;99.90;;;;;;4023773;29;20207;-88
2023/01/12 07:40:01;;;;;;;8.85;1.30;;;10.20;99.90;;;;;;4024250;29;20627;-88
2023/01/12 07:44:21;;;;;;;11.43;1.70;;;10.30;99.90;;;;;;4039121;29;20581;-90
2023/01/12 07:46:22;;;;;;;15.77;1.60;;;10.30;99.90;;;;;;4039148;29;20258;-89
2023/01/12 07:48:25;;;;;;;9.43;1.60;;;10.40;99.90;;;;;;4039432;29;20181;-90
2023/01/12 07:50:27;;;;;;;10.73;1.52;;;10.30;99.90;;;;;;4023752;29;20174;-88
2023/01/12 07:52:28;;;;;;;7.63;1.38;;;10.20;99.90;;;;;;4039092;29;20181;-89
2023/01/12 07:54:29;;;;;;;10.45;1.50;;;10.30;99.90;;;;;;4038566;29;20185;-88
2023/01/12 07:56:30;;;;;;;9.40;1.25;;;10.30;99.90;;;;;;4039124;29;20206;-88
2023/01/12 07:58:30;;;;;;;12.82;2.00;;;10.30;99.90;;;;;;4023396;29;20700;-89
2023/01/12 08:02:33;;;;;;;17.17;2.08;;;10.40;99.90;;;;;;4037496;29;20717;-92
2023/01/12 08:04:34;;;;;;;10.45;1.42;;;10.30;99.90;;;;;;4038266;29;20296;-91
2023/01/12 08:06:35;;;;;;;12.25;2.30;;;10.30;99.90;;;;;;4038500;29;20683;-91
2023/01/12 08:08:36;;;;;;;13.00;1.77;;;10.30;99.90;;;;;;4007893;29;20202;-92
2023/01/12 08:10:36;;;;;;;10.40;1.63;;;10.40;99.90;;;;;;4038481;29;20180;-92
2023/01/12 08:12:38;;;;;;;17.25;2.38;;;10.40;99.90;;;;;;4008105;29;20175;-92
2023/01/12 08:14:40;;;;;;;13.60;2.28;;;10.40;99.90;;;;;;4038761;29;20170;-89
2023/01/12 08:16:45;;;;;;;17.55;1.73;;;10.40;99.90;;;;;;4038544;29;20205;-90
2023/01/12 08:18:58;;;;;;;9.20;1.30;;;10.40;99.90;;;;;;4038655;29;20170;-92
2023/01/12 08:21:02;;;;;;;14.45;2.00;;;10.30;99.90;;;;;;4007805;29;20193;-92
2023/01/12 08:23:16;;;;;;;8.98;1.58;;;10.40;99.90;;;;;;4038421;29;20663;-92
2023/01/12 08:25:25;;;;;;;15.98;2.08;;;10.40;99.90;;;;;;4038286;29;20221;-91
2023/01/12 08:27:28;;;;;;;10.80;1.67;;;10.30;99.90;;;;;;4038357;29;20663;-92
2023/01/12 08:29:53;;;;;;;14.75;2.08;;;10.30;99.90;;;;;;4022927;29;20628;-93
2023/01/12 08:32:00;;;;;;;13.00;2.15;;;10.40;99.90;;;;;;4007635;29;20723;-91
2023/01/12 08:34:01;;;;;;;15.77;2.40;;;10.40;99.90;;;;;;4007488;29;20195;-91
2023/01/12 08:36:09;;;;;;;4.25;0.75;;;10.30;99.90;;;;;;4007493;29;20171;-91
2023/01/12 08:38:10;;;;;;;8.90;1.75;;;10.30;99.90;;;;;;4038304;29;20264;-89
2023/01/12 08:40:12;;;;;;;10.80;2.58;;;10.30;99.90;;;;;;4022662;29;20273;-91
2023/01/12 08:42:13;;;;;;;13.80;1.90;;;10.30;99.90;;;;;;4038103;29;20390;-90
2023/01/12 08:44:14;;;;;;;14.45;1.92;;;10.30;99.90;;;;;;4022818;29;20221;-92
2023/01/12 08:46:14;;;;;;;11.43;1.70;;;10.30;99.90;;;;;;4038123;29;20182;-92
2023/01/12 08:48:18;;;;;;;13.82;1.73;;;10.20;99.90;;;;;;4007761;29;20175;-88
2023/01/12 08:50:19;;;;;;;7.53;1.50;;;10.30;99.90;;;;;;4038095;29;20612;-91
2023/01/12 08:52:20;;;;;;;8.95;1.30;;;10.30;99.90;;;;;;4007793;29;20175;-91
2023/01/12 08:54:21;;;;;;;4.93;1.10;;;10.40;99.90;;;;;;4022714;29;20733;-90
2023/01/12 08:56:22;;;;;;;7.90;1.23;;;10.50;99.90;;;;;;4007451;29;20218;-89
2023/01/12 08:58:23;;;;;;;11.57;1.55;;;10.50;99.90;;;;;;4007409;29;20684;-90
2023/01/12 09:00:23;;;;;;;6.50;1.35;;;10.50;99.90;;;;;;4007139;29;20261;-90
2023/01/12 09:02:25;;;;;;;9.80;1.20;;;10.50;99.90;;;;;;4022387;29;20194;-88
2023/01/12 09:04:26;;;;;;;6.82;1.20;;;10.40;99.90;;;;;;4037887;29;20253;-90
2023/01/12 09:06:33;;;;;;;8.98;1.33;;;10.50;99.90;;;;;;4006765;29;20676;-91
2023/01/12 09:08:34;;;;;;;12.73;1.90;;;10.40;99.90;;;;;;4007247;29;20183;-91
2023/01/12 09:10:35;;;;;;;108.30;55.53;;;10.40;99.90;;;;;;4022372;29;20230;-89
2023/01/12 09:12:35;;;;;;;3.15;1.13;;;10.50;99.90;;;;;;4007288;29;20679;-91
2023/01/12 09:14:37;;;;;;;10.32;2.55;;;10.40;99.90;;;;;;4009104;29;20175;-90
2023/01/12 09:16:39;;;;;;;6.85;1.20;;;10.40;99.90;;;;;;4015118;29;20191;-91
2023/01/12 09:18:40;;;;;;;12.30;4.13;;;10.40;99.90;;;;;;4057592;29;20166;-90
2023/01/12 09:20:41;;;;;;;5.20;1.13;;;10.50;99.90;;;;;;4041765;29;20177;-90
2023/01/12 09:22:42;;;;;;;12.00;2.90;;;10.50;99.90;;;;;;4022827;29;20289;-91
2023/01/12 09:24:42;;;;;;;4.88;1.85;;;10.50;99.90;;;;;;4037588;29;20205;-92
2023/01/12 09:26:45;;;;;;;9.50;3.88;;;10.70;99.90;;;;;;4007295;29;20250;-91
2023/01/12 09:28:46;;;;;;;6.88;2.00;;;10.70;99.90;;;;;;4007101;29;20641;-91
2023/01/12 09:30:47;;;;;;;8.35;2.65;;;10.60;99.90;;;;;;4037678;29;20174;-91
2023/01/12 09:32:48;;;;;;;11.25;5.18;;;10.70;99.90;;;;;;4007304;29;20645;-91
2023/01/12 09:34:48;;;;;;;3.95;0.93;;;10.60;99.90;;;;;;4007021;29;20568;-91
2023/01/12 09:36:51;;;;;;;3.45;0.60;;;10.70;99.90;;;;;;4006885;29;20259;-91
2023/01/12 09:38:52;;;;;;;8.35;1.23;;;10.70;99.90;;;;;;4006878;29;20197;-91
2023/01/12 09:40:54;;;;;;;5.13;0.75;;;10.70;99.90;;;;;;4022560;29;20228;-91
2023/01/12 09:47:54;;;;;;;9.32;1.70;;;10.60;99.90;;;;;;4022167;29;20206;-91
2023/01/12 09:50:00;;;;;;;10.70;1.08;;;10.70;99.90;;;;;;4037563;29;20188;-91
2023/01/12 09:52:15;;;;;;;2.35;0.50;;;10.80;99.90;;;;;;4037342;29;20182;-92
2023/01/12 09:54:16;;;;;;;7.70;1.10;;;10.80;99.90;;;;;;4006832;29;20220;-91
2023/01/12 09:56:27;;;;;;;5.18;0.93;;;10.70;99.90;;;;;;4022196;29;20206;-90
2023/01/12 09:58:57;;;;;;;4.10;1.05;;;10.70;99.90;;;;;;4037449;29;20177;-92
2023/01/12 10:01:00;;;;;;;5.35;1.13;;;10.70;99.90;;;;;;4037350;29;20189;-90
2023/01/12 10:03:10;;;;;;;6.00;1.30;;;10.70;99.90;;;;;;4006943;29;20229;-90
2023/01/12 10:05:39;;;;;;;6.35;1.00;;;10.70;99.90;;;;;;4006656;29;20218;-90
2023/01/12 10:07:39;;;;;;;6.13;1.02;;;10.70;99.90;;;;;;4037127;29;20209;-90
2023/01/12 10:09:41;;;;;;;10.43;2.90;;;10.80;99.90;;;;;;4021953;29;20185;-91
2023/01/12 10:11:44;;;;;;;6.30;1.17;;;10.70;99.90;;;;;;4006770;29;20187;-92
2023/01/12 10:14:01;;;;;;;6.50;1.20;;;10.80;99.90;;;;;;4006774;29;20343;-90
2023/01/12 10:16:13;;;;;;;8.57;0.95;;;10.80;99.90;;;;;;4021747;29;20182;-89
2023/01/12 10:18:23;;;;;;;3.58;0.90;;;10.70;99.90;;;;;;4039571;29;20242;-90
2023/01/12 10:20:35;;;;;;;7.75;1.10;;;10.70;99.90;;;;;;4040087;29;20192;-90
2023/01/12 10:22:53;;;;;;;9.07;1.42;;;10.70;99.90;;;;;;4040043;29;20181;-90
2023/01/12 10:24:54;;;;;;;6.60;1.08;;;10.70;99.90;;;;;;4040014;29;20225;-90
2023/01/12 10:27:02;;;;;;;10.05;1.30;;;10.70;99.90;;;;;;4024723;29;20748;-90
2023/01/12 10:29:02;;;;;;;9.48;1.42;;;10.80;99.90;;;;;;4040155;29;20670;-91
2023/01/12 10:31:03;;;;;;;4.43;0.57;;;10.90;99.90;;;;;;4009700;29;20179;-91
2023/01/12 10:33:11;;;;;;;7.07;1.00;;;10.80;99.90;;;;;;4024853;29;20182;-90
2023/01/12 10:35:20;;;;;;;4.53;0.88;;;10.80;99.90;;;;;;4011004;29;20669;-95
2023/01/12 10:37:21;;;;;;;9.43;1.10;;;10.70;99.90;;;;;;4044769;29;20659;-90
2023/01/12 10:39:31;;;;;;;7.88;1.20;;;10.70;99.90;;;;;;4009478;29;20186;-90
2023/01/12 10:41:34;;;;;;;7.85;1.25;;;10.70;99.90;;;;;;4040090;29;20169;-91
2023/01/12 10:43:35;;;;;;;7.15;1.02;;;10.80;99.90;;;;;;4039964;29;20180;-91
2023/01/12 10:45:36;;;;;;;6.28;1.02;;;10.80;99.90;;;;;;4009215;29;20584;-91
2023/01/12 10:47:37;;;;;;;4.90;0.90;;;10.90;99.90;;;;;;4024686;29;20210;-91
2023/01/12 10:49:37;;;;;;;3.38;0.90;;;10.90;99.90;;;;;;4040029;29;20201;-91
2023/01/12 10:51:55;;;;;;;3.58;0.60;;;10.90;99.90;;;;;;4009182;29;20175;-90
2023/01/12 10:54:08;;;;;;;7.00;1.27;;;11.00;99.90;;;;;;4039914;29;20178;-91
2023/01/12 10:56:20;;;;;;;6.00;1.83;;;10.90;99.90;;;;;;4009285;29;20193;-91
2023/01/12 10:58:30;;;;;;;7.13;1.08;;;10.90;99.90;;;;;;4009096;29;20175;-92
2023/01/12 11:00:31;;;;;;;4.43;0.70;;;10.80;99.90;;;;;;4039756;29;20681;-93
2023/01/12 11:02:42;;;;;;;4.70;0.98;;;10.90;99.90;;;;;;4024327;29;20194;-90
2023/01/12 11:04:48;;;;;;;4.53;1.00;;;10.90;99.90;;;;;;4039543;29;20221;-89
2023/01/12 11:07:11;;;;;;;5.32;0.80;;;10.80;99.90;;;;;;4039671;29;20280;-90
2023/01/12 11:09:25;;;;;;;6.75;0.90;;;10.90;99.90;;;;;;4039316;29;20268;-90
2023/01/12 11:11:29;;;;;;;4.80;0.75;;;10.90;99.90;;;;;;4039755;29;20635;-90
2023/01/12 11:13:36;;;;;;;5.68;0.77;;;10.90;99.90;;;;;;4040282;29;20166;-91
2023/01/12 11:15:39;;;;;;;5.97;0.80;;;10.90;99.90;;;;;;4009042;29;20641;-90
2023/01/12 11:18:02;;;;;;;6.90;1.25;;;11.00;99.90;;;;;;4008906;29;20207;-92
2023/01/12 11:20:12;;;;;;;4.40;0.70;;;10.90;99.90;;;;;;4009180;29;20256;-90